Time;durP1;ratioP1;P1;durP2;ratioP2;P2;SDS_P1;SDS_P2;PMS_P1;PMS_P2;Temp;Humidity;BMP_temperature;BMP_pressure;BME280_temperature;BME280_humidity;BME280_pressure;Samples;Min_cycle;Max_cycle;Signal;HPM_P1;HPM_P2
2023/03/12 00:02:21;;;;;;;;;;;;;;;1.01;87.30;99779.34;5587880;31;34324;-63
2023/03/12 00:05:30;;;;;;;;;;;;;;;0.98;86.64;99793.47;5587997;31;34266;-64
2023/03/12 00:08:41;;;;;;;;;;;;;;;1.00;86.31;99803.78;5587575;31;34388;-63
2023/03/12 00:11:46;;;;;;;;;;;;;;;0.92;87.11;99808.81;5587610;31;34222;-62
2023/03/12 00:14:53;;;;;;;;;;;;;;;0.99;86.11;99805.56;5587567;31;34391;-63
2023/03/12 00:17:58;;;;;;;;;;;;;;;0.90;87.43;99808.91;5586828;31;34102;-63
2023/03/12 00:21:10;;;;;;;;;;;;;;;0.83;88.34;99816.38;5587637;31;34260;-63
2023/03/12 00:24:18;;;;;;;;;;;;;;;0.87;88.26;99824.81;5587473;31;34155;-63
2023/03/12 00:27:25;;;;;;;;;;;;;;;0.82;88.13;99830.38;5589431;31;34874;-63
2023/03/12 00:30:39;;;;;;;;;;;;;;;0.60;89.04;99835.63;5590331;31;34828;-63
2023/03/12 00:33:44;;;;;;;;;;;;;;;0.49;91.67;99842.59;5590352;31;34378;-63
2023/03/12 00:36:52;;;;;;;;;;;;;;;0.67;90.20;99842.03;5590634;31;34587;-63
2023/03/12 00:40:07;;;;;;;;;;;;;;;0.61;89.38;99846.88;5590270;31;35004;-62
2023/03/12 00:43:13;;;;;;;;;;;;;;;0.64;87.42;99849.25;5589956;31;34761;-63
2023/03/12 00:46:18;;;;;;;;;;;;;;;0.63;88.25;99853.63;5589710;31;34847;-63
2023/03/12 00:49:22;;;;;;;;;;;;;;;0.50;87.22;99863.34;5590534;31;34366;-63
2023/03/12 00:52:28;;;;;;;;;;;;;;;0.55;86.65;99865.63;5589678;31;34485;-63
2023/03/12 00:55:38;;;;;;;;;;;;;;;0.58;86.25;99876.66;5590384;31;35116;-63
2023/03/12 00:58:47;;;;;;;;;;;;;;;0.58;85.47;99876.66;5590226;31;34799;-63
2023/03/12 01:01:58;;;;;;;;;;;;;;;0.50;85.42;99875.56;5590197;31;34411;-63
2023/03/12 01:05:07;;;;;;;;;;;;;;;0.61;79.75;99873.81;5590038;31;34930;-63
2023/03/12 01:08:18;;;;;;;;;;;;;;;0.69;77.64;99875.84;5589434;31;34235;-63
2023/03/12 01:11:26;;;;;;;;;;;;;;;0.60;79.24;99873.94;5589909;31;35109;-63
2023/03/12 01:14:37;;;;;;;;;;;;;;;0.64;75.27;99880.56;5589376;31;34232;-67
2023/03/12 01:17:43;;;;;;;;;;;;;;;0.85;72.40;99886.78;5589990;31;34935;-63
2023/03/12 01:20:52;;;;;;;;;;;;;;;0.68;71.68;99895.88;5590153;31;34259;-64
2023/03/12 01:23:58;;;;;;;;;;;;;;;0.68;71.09;99888.06;5589128;31;33995;-63
2023/03/12 01:27:07;;;;;;;;;;;;;;;0.61;71.39;99883.44;5590402;31;34824;-63
2023/03/12 01:30:13;;;;;;;;;;;;;;;0.56;71.37;99885.56;5589183;31;34335;-63
2023/03/12 01:33:21;;;;;;;;;;;;;;;0.72;71.12;99876.44;5589291;31;33099;-63
2023/03/12 01:36:30;;;;;;;;;;;;;;;0.67;71.15;99877.75;5589478;31;34169;-63
2023/03/12 01:39:39;;;;;;;;;;;;;;;0.75;68.94;99870.97;5589816;31;34201;-63
2023/03/12 01:42:53;;;;;;;;;;;;;;;0.75;68.41;99873.59;5576551;31;33365;-63
2023/03/12 01:46:05;;;;;;;;;;;;;;;0.76;67.40;99887.47;5589896;31;34190;-63
2023/03/12 01:49:20;;;;;;;;;;;;;;;0.79;66.64;99892.47;5589868;31;34661;-63
2023/03/12 01:52:34;;;;;;;;;;;;;;;0.69;65.77;99899.31;5590044;31;34329;-63
2023/03/12 01:55:44;;;;;;;;;;;;;;;0.44;68.11;99897.75;5589067;31;34197;-62
2023/03/12 01:58:56;;;;;;;;;;;;;;;0.54;68.60;99901.31;5589754;31;34975;-63
2023/03/12 02:02:05;;;;;;;;;;;;;;;0.46;68.77;99915.91;5576000;31;33136;-63
2023/03/12 02:05:33;;;;;;;;;;;;;;;0.36;70.23;99907.94;5589731;31;34156;-63
2023/03/12 02:08:42;;;;;;;;;;;;;;;0.39;70.57;99913.75;5589614;31;34965;-63
2023/03/12 02:11:50;;;;;;;;;;;;;;;0.35;70.96;99921.91;5588921;31;34262;-63
2023/03/12 02:14:56;;;;;;;;;;;;;;;0.39;71.24;99921.56;5589394;31;34637;-64
2023/03/12 02:18:02;;;;;;;;;;;;;;;0.23;71.91;99936.72;5589693;31;34246;-63
2023/03/12 02:21:20;;;;;;;;;;;;;;;0.20;73.20;99930.88;5589630;31;35415;-63
2023/03/12 02:24:33;;;;;;;;;;;;;;;0.10;75.87;99943.75;5589512;31;34220;-63
2023/03/12 02:27:42;;;;;;;;;;;;;;;0.13;76.62;99942.72;5589701;31;33943;-62
2023/03/12 02:30:53;;;;;;;;;;;;;;;0.03;78.00;99942.56;5588852;31;34130;-63
2023/03/12 02:34:02;;;;;;;;;;;;;;;-0.04;80.00;99949.16;5589498;31;34305;-63
2023/03/12 02:37:12;;;;;;;;;;;;;;;-0.07;80.80;99949.38;5589417;31;34382;-63
2023/03/12 02:40:38;;;;;;;;;;;;;;;-0.08;82.29;99960.75;5588698;31;34926;-62
2023/03/12 02:43:50;;;;;;;;;;;;;;;-0.15;82.78;99973.41;5589470;31;34794;-63
2023/03/12 02:46:57;;;;;;;;;;;;;;;-0.15;84.05;99983.84;5589382;31;34518;-63
2023/03/12 02:50:08;;;;;;;;;;;;;;;-0.19;84.56;99974.53;5588674;31;33735;-63
2023/03/12 02:53:17;;;;;;;;;;;;;;;-0.16;85.25;99983.94;5589434;31;34374;-63
2023/03/12 02:56:27;;;;;;;;;;;;;;;-0.20;86.41;99972.91;5589660;31;34309;-63
2023/03/12 02:59:34;;;;;;;;;;;;;;;-0.22;87.21;99982.59;5589205;31;34935;-64
2023/03/12 03:02:42;;;;;;;;;;;;;;;-0.32;89.89;99986.78;5589149;31;34928;-64
2023/03/12 03:05:48;;;;;;;;;;;;;;;-0.26;90.77;99985.53;5589059;31;34888;-63
2023/03/12 03:08:58;;;;;;;;;;;;;;;-0.36;93.43;99993.16;5589128;31;34880;-63
2023/03/12 03:12:06;;;;;;;;;;;;;;;-0.40;95.13;100012.56;5588263;31;33804;-63
2023/03/12 03:15:16;;;;;;;;;;;;;;;-0.50;97.14;100009.78;5588903;31;34983;-63
2023/03/12 03:18:23;;;;;;;;;;;;;;;-0.49;98.96;100008.84;5588045;31;34491;-63
2023/03/12 03:21:33;;;;;;;;;;;;;;;-0.45;99.56;100010.28;5588061;31;34676;-63
2023/03/12 03:24:41;;;;;;;;;;;;;;;-0.55;100.00;100016.25;5588735;31;34965;-63
2023/03/12 03:27:51;;;;;;;;;;;;;;;-0.62;100.00;100015.81;5588768;31;34809;-63
2023/03/12 03:31:00;;;;;;;;;;;;;;;-0.59;100.00;100020.00;5588821;31;34848;-63
2023/03/12 03:34:12;;;;;;;;;;;;;;;-0.60;100.00;100033.97;5587607;31;34106;-63
2023/03/12 03:37:21;;;;;;;;;;;;;;;-0.69;100.00;100040.63;5587934;31;34221;-63
2023/03/12 03:40:29;;;;;;;;;;;;;;;-0.79;100.00;100043.97;5588487;31;34977;-63
2023/03/12 03:43:36;;;;;;;;;;;;;;;-0.80;100.00;100037.09;5588341;31;34286;-63
2023/03/12 03:46:45;;;;;;;;;;;;;;;-0.82;100.00;100039.78;5587725;31;34237;-63
2023/03/12 03:49:51;;;;;;;;;;;;;;;-0.87;100.00;100047.91;5587380;31;34762;-63
2023/03/12 03:53:02;;;;;;;;;;;;;;;-0.84;100.00;100046.87;5588171;31;33822;-63
2023/03/12 03:56:10;;;;;;;;;;;;;;;-0.76;100.00;100044.59;5588134;31;34789;-63
2023/03/12 03:59:19;;;;;;;;;;;;;;;-0.79;100.00;100039.59;5588325;31;33317;-63
2023/03/12 04:02:27;;;;;;;;;;;;;;;-0.82;100.00;100042.38;5590647;31;34843;-63
2023/03/12 04:05:38;;;;;;;;;;;;;;;-0.98;100.00;100058.22;5589365;31;33703;-63
2023/03/12 04:08:45;;;;;;;;;;;;;;;-1.12;100.00;100066.12;5590738;31;34854;-63
2023/03/12 04:11:55;;;;;;;;;;;;;;;-1.12;100.00;100058.31;5590481;31;34630;-64
2023/03/12 04:15:03;;;;;;;;;;;;;;;-1.12;100.00;100060.09;5589568;31;33236;-63
2023/03/12 04:18:11;;;;;;;;;;;;;;;-1.21;100.00;100071.91;5590760;31;34793;-63
2023/03/12 04:21:21;;;;;;;;;;;;;;;-1.19;100.00;100079.62;5590512;31;34612;-63
2023/03/12 04:24:32;;;;;;;;;;;;;;;-1.14;100.00;100093.19;5590418;31;34711;-63
2023/03/12 04:27:40;;;;;;;;;;;;;;;-1.32;100.00;100101.25;5590544;31;34249;-63
2023/03/12 04:30:58;;;;;;;;;;;;;;;-1.39;100.00;100110.38;5590504;31;34353;-63
2023/03/12 04:34:08;;;;;;;;;;;;;;;-1.41;100.00;100122.69;5589880;31;34532;-63
2023/03/12 04:37:21;;;;;;;;;;;;;;;-1.24;100.00;100120.75;5590517;31;33839;-63
2023/03/12 04:40:28;;;;;;;;;;;;;;;-1.29;100.00;100133.22;5590593;31;34220;-63
2023/03/12 04:43:37;;;;;;;;;;;;;;;-1.35;100.00;100137.03;5590765;31;34910;-63
2023/03/12 04:46:50;;;;;;;;;;;;;;;-1.36;100.00;100146.63;5589655;31;34641;-62
2023/03/12 04:50:04;;;;;;;;;;;;;;;-1.49;100.00;100137.91;5590487;31;34801;-63
2023/03/12 04:53:10;;;;;;;;;;;;;;;-1.56;100.00;100138.41;5590287;31;35086;-63
2023/03/12 04:56:19;;;;;;;;;;;;;;;-1.50;100.00;100140.62;5590349;31;34590;-63
2023/03/12 04:59:26;;;;;;;;;;;;;;;-1.27;100.00;100154.78;5590377;31;34621;-63
2023/03/12 05:02:40;;;;;;;;;;;;;;;-1.23;100.00;100164.88;5589382;31;34283;-63
2023/03/12 05:05:49;;;;;;;;;;;;;;;-1.12;100.00;100165.03;5590256;31;34144;-63
2023/03/12 05:08:56;;;;;;;;;;;;;;;-1.01;100.00;100167.75;5590260;31;34892;-63
2023/03/12 05:12:04;;;;;;;;;;;;;;;-1.02;100.00;100166.13;5589558;31;34191;-63
2023/03/12 05:15:11;;;;;;;;;;;;;;;-1.06;100.00;100172.44;5589536;31;34397;-63
2023/03/12 05:18:19;;;;;;;;;;;;;;;-1.11;100.00;100169.28;5590445;31;34609;-63
2023/03/12 05:21:32;;;;;;;;;;;;;;;-1.15;100.00;100166.97;5590221;31;33029;-63
2023/03/12 05:24:42;;;;;;;;;;;;;;;-1.18;100.00;100172.41;5589887;31;34806;-62
2023/03/12 05:27:54;;;;;;;;;;;;;;;-1.13;100.00;100172.94;5590084;31;34747;-62
2023/03/12 05:31:08;;;;;;;;;;;;;;;-1.03;100.00;100177.47;5590009;31;34278;-63
2023/03/12 05:34:24;;;;;;;;;;;;;;;-1.02;100.00;100186.94;5590119;31;34888;-63
2023/03/12 05:37:30;;;;;;;;;;;;;;;-1.00;100.00;100194.62;5590000;31;34249;-63
2023/03/12 05:40:41;;;;;;;;;;;;;;;-0.99;100.00;100194.53;5590006;31;34175;-64
2023/03/12 05:43:51;;;;;;;;;;;;;;;-0.92;100.00;100200.19;5590180;31;34361;-64
2023/03/12 05:47:03;;;;;;;;;;;;;;;-0.95;100.00;100197.78;5589904;31;34806;-63
2023/03/12 05:50:10;;;;;;;;;;;;;;;-0.91;100.00;100197.47;5589741;31;34910;-63
2023/03/12 05:53:19;;;;;;;;;;;;;;;-0.81;100.00;100208.12;5589198;31;34796;-64
2023/03/12 05:56:28;;;;;;;;;;;;;;;-0.77;100.00;100214.81;5589761;31;34467;-63
2023/03/12 05:59:38;;;;;;;;;;;;;;;-0.77;100.00;100227.81;5589588;31;34241;-63
2023/03/12 06:02:45;;;;;;;;;;;;;;;-0.74;100.00;100226.81;5589809;31;34908;-63
2023/03/12 06:05:54;;;;;;;;;;;;;;;-0.66;100.00;100235.78;5588794;31;34690;-64
2023/03/12 06:09:02;;;;;;;;;;;;;;;-0.58;100.00;100235.31;5588568;31;32427;-64
2023/03/12 06:12:11;;;;;;;;;;;;;;;-0.39;100.00;100247.94;5589378;31;34128;-63
2023/03/12 06:15:19;;;;;;;;;;;;;;;-0.25;100.00;100251.31;5575758;31;33139;-63
2023/03/12 06:18:29;;;;;;;;;;;;;;;-0.06;100.00;100258.72;5588816;31;34369;-63
2023/03/12 06:21:41;;;;;;;;;;;;;;;0.12;100.00;100261.84;5589483;31;34218;-63
2023/03/12 06:24:52;;;;;;;;;;;;;;;0.26;100.00;100274.78;5587434;31;34871;-63
2023/03/12 06:28:03;;;;;;;;;;;;;;;0.42;100.00;100283.25;5588571;31;35136;-63
2023/03/12 06:31:14;;;;;;;;;;;;;;;0.48;100.00;100280.22;5589675;31;34620;-63
2023/03/12 06:34:23;;;;;;;;;;;;;;;0.55;100.00;100281.44;5589569;31;34978;-62
2023/03/12 06:37:30;;;;;;;;;;;;;;;0.65;100.00;100290.31;5589779;31;34321;-63
2023/03/12 06:40:39;;;;;;;;;;;;;;;0.74;100.00;100301.87;5588789;31;34930;-63
2023/03/12 06:43:47;;;;;;;;;;;;;;;1.03;100.00;100313.72;5589436;31;34679;-63
2023/03/12 06:46:56;;;;;;;;;;;;;;;1.18;100.00;100312.63;5589517;31;34628;-64
2023/03/12 06:50:03;;;;;;;;;;;;;;;1.05;100.00;100317.06;5588801;31;34882;-64
2023/03/12 06:53:09;;;;;;;;;;;;;;;1.00;100.00;100319.16;5588813;31;34451;-64
2023/03/12 06:56:18;;;;;;;;;;;;;;;1.48;99.15;100321.81;5588606;31;33734;-64
2023/03/12 06:59:26;;;;;;;;;;;;;;;1.79;95.42;100321.25;5589430;31;34952;-64
2023/03/12 07:02:34;;;;;;;;;;;;;;;1.71;95.79;100331.44;5589146;31;34329;-63
2023/03/12 07:05:46;;;;;;;;;;;;;;;1.84;91.50;100336.59;5589235;31;34055;-63
2023/03/12 07:08:56;;;;;;;;;;;;;;;2.05;87.42;100338.44;5589176;31;34267;-64
2023/03/12 07:12:04;;;;;;;;;;;;;;;1.67;90.75;100336.06;5588996;31;34368;-64
2023/03/12 07:15:11;;;;;;;;;;;;;;;2.07;89.71;100338.34;5589159;31;34129;-63
2023/03/12 07:18:19;;;;;;;;;;;;;;;2.34;86.49;100338.87;5589029;31;34283;-63
2023/03/12 07:21:28;;;;;;;;;;;;;;;2.00;88.23;100350.19;5588281;31;34682;-65
2023/03/12 07:24:36;;;;;;;;;;;;;;;2.02;87.37;100348.31;5588784;31;34188;-63
2023/03/12 07:27:46;;;;;;;;;;;;;;;1.90;87.88;100350.03;5588754;31;35011;-64
2023/03/12 07:30:58;;;;;;;;;;;;;;;2.33;84.51;100346.81;5588577;31;34530;-63
2023/03/12 07:34:07;;;;;;;;;;;;;;;2.63;80.63;100354.97;5588779;31;34353;-63
2023/03/12 07:37:19;;;;;;;;;;;;;;;3.06;77.46;100362.94;5590839;31;34962;-63
2023/03/12 07:40:26;;;;;;;;;;;;;;;3.15;75.83;100361.41;5590415;31;35407;-63
2023/03/12 07:43:32;;;;;;;;;;;;;;;4.25;70.04;100368.09;5591350;31;34193;-63
2023/03/12 07:46:39;;;;;;;;;;;;;;;4.78;65.68;100368.81;5590929;31;34271;-65
2023/03/12 07:49:47;;;;;;;;;;;;;;;5.75;61.71;100380.47;5591198;31;34335;-63
2023/03/12 07:52:56;;;;;;;;;;;;;;;5.27;62.03;100372.47;5590384;31;34976;-64
2023/03/12 07:56:03;;;;;;;;;;;;;;;5.36;61.09;100369.03;5589801;31;33414;-63
2023/03/12 07:59:11;;;;;;;;;;;;;;;5.91;58.07;100388.66;5590761;31;34825;-64
2023/03/12 08:02:17;;;;;;;;;;;;;;;5.39;59.04;100379.28;5590855;31;34592;-63
2023/03/12 08:05:24;;;;;;;;;;;;;;;6.48;55.37;100385.19;5590176;31;33657;-62
2023/03/12 08:08:30;;;;;;;;;;;;;;;6.99;53.65;100387.41;5590813;31;34247;-63
2023/03/12 08:11:41;;;;;;;;;;;;;;;8.64;49.27;100386.13;5590514;31;34947;-63
2023/03/12 08:14:48;;;;;;;;;;;;;;;8.43;48.71;100380.34;5590732;31;34946;-63
2023/03/12 08:17:58;;;;;;;;;;;;;;;10.36;44.54;100397.97;5590003;31;34247;-64
2023/03/12 08:21:05;;;;;;;;;;;;;;;9.07;47.03;100394.97;5590657;31;34603;-63
2023/03/12 08:24:13;;;;;;;;;;;;;;;9.68;43.62;100399.19;5590691;31;34861;-64
2023/03/12 08:27:22;;;;;;;;;;;;;;;10.88;40.99;100400.25;5590560;31;34266;-64
2023/03/12 08:30:31;;;;;;;;;;;;;;;9.90;43.52;100402.06;5589115;31;32743;-64
2023/03/12 08:33:42;;;;;;;;;;;;;;;9.83;42.32;100408.16;5590530;31;35127;-64
2023/03/12 08:36:49;;;;;;;;;;;;;;;10.95;40.44;100405.69;5590579;31;34220;-64
2023/03/12 08:39:56;;;;;;;;;;;;;;;11.97;38.27;100406.44;5590667;31;34943;-64
2023/03/12 08:43:06;;;;;;;;;;;;;;;9.77;41.64;100416.75;5590390;31;34806;-64
2023/03/12 08:46:11;;;;;;;;;;;;;;;10.22;41.52;100411.06;5589778;31;34959;-64
2023/03/12 08:49:20;;;;;;;;;;;;;;;10.57;39.96;100412.56;5590308;31;34865;-64
2023/03/12 08:52:27;;;;;;;;;;;;;;;14.14;34.70;100414.13;5590419;31;34778;-64
2023/03/12 08:55:34;;;;;;;;;;;;;;;9.94;40.44;100400.72;5589655;31;34230;-64
2023/03/12 08:58:43;;;;;;;;;;;;;;;9.43;42.19;100414.16;5589433;31;33380;-64
2023/03/12 09:01:56;;;;;;;;;;;;;;;8.79;44.46;100404.06;5590292;31;34406;-64
2023/03/12 09:05:04;;;;;;;;;;;;;;;7.68;44.15;100392.19;5590295;31;34607;-64
2023/03/12 09:08:14;;;;;;;;;;;;;;;6.11;48.87;100397.41;5590254;31;33430;-63
2023/03/12 09:11:21;;;;;;;;;;;;;;;5.54;50.29;100392.87;5589118;31;34786;-64
2023/03/12 09:14:29;;;;;;;;;;;;;;;4.76;52.51;100390.91;5589685;31;34753;-63
2023/03/12 09:17:55;;;;;;;;;;;;;;;4.59;52.95;100388.91;5589873;31;34800;-64
2023/03/12 09:21:02;;;;;;;;;;;;;;;4.19;54.69;100386.97;5589568;31;34773;-63
2023/03/12 09:24:09;;;;;;;;;;;;;;;4.01;55.58;100391.12;5589522;31;34600;-64
2023/03/12 09:27:18;;;;;;;;;;;;;;;4.12;52.26;100393.69;5589034;31;34829;-64
2023/03/12 09:30:25;;;;;;;;;;;;;;;3.78;52.81;100377.22;5588922;31;34805;-64
2023/03/12 09:33:38;;;;;;;;;;;;;;;3.74;53.05;100381.06;5589106;31;34385;-64
2023/03/12 09:36:46;;;;;;;;;;;;;;;3.81;53.12;100390.13;5589052;31;35304;-65
2023/03/12 09:39:53;;;;;;;;;;;;;;;3.89;54.02;100384.22;5588410;31;34039;-64
2023/03/12 09:43:03;;;;;;;;;;;;;;;3.97;52.91;100381.81;5589223;31;34179;-64
2023/03/12 09:46:12;;;;;;;;;;;;;;;3.96;53.22;100387.19;5589111;31;34482;-64
2023/03/12 09:49:37;;;;;;;;;;;;;;;3.88;52.25;100378.16;5589301;31;33925;-64
2023/03/12 09:52:56;;;;;;;;;;;;;;;3.98;52.06;100382.63;5589135;31;34300;-65
2023/03/12 09:56:09;;;;;;;;;;;;;;;4.14;52.16;100376.03;5588952;31;34904;-64
2023/03/12 09:59:19;;;;;;;;;;;;;;;4.29;52.42;100368.66;5588261;31;34650;-64
2023/03/12 10:02:27;;;;;;;;;;;;;;;4.47;51.64;100368.91;5589280;31;34873;-64
2023/03/12 10:05:53;;;;;;;;;;;;;;;4.39;51.67;100380.06;5589185;31;33960;-63
2023/03/12 10:08:58;;;;;;;;;;;;;;;4.31;51.53;100378.06;5588101;31;35117;-63
2023/03/12 10:12:24;;;;;;;;;;;;;;;4.54;50.85;100378.78;5589123;31;34324;-63
2023/03/12 10:15:51;;;;;;;;;;;;;;;4.76;50.72;100378.63;5589034;31;34935;-64
2023/03/12 10:19:16;;;;;;;;;;;;;;;4.92;50.38;100378.16;5588971;31;34657;-63
2023/03/12 10:22:27;;;;;;;;;;;;;;;4.97;50.11;100381.22;5589751;31;34073;-64
2023/03/12 10:25:40;;;;;;;;;;;;;;;5.00;49.55;100382.72;5589444;31;34913;-65
2023/03/12 10:28:51;;;;;;;;;;;;;;;5.05;48.82;100381.38;5589379;31;34395;-65
2023/03/12 10:32:10;;;;;;;;;;;;;;;5.17;48.00;100382.13;5589495;31;34244;-66
2023/03/12 10:35:22;;;;;;;;;;;;;;;5.14;47.48;100388.47;5589266;31;34751;-65
2023/03/12 10:38:30;;;;;;;;;;;;;;;5.10;46.99;100387.06;5589358;31;34260;-63
2023/03/12 10:41:37;;;;;;;;;;;;;;;5.27;46.39;100383.00;5588438;31;34507;-65
2023/03/12 10:44:47;;;;;;;;;;;;;;;5.32;44.94;100391.31;5589296;31;34191;-64
2023/03/12 10:47:56;;;;;;;;;;;;;;;5.12;45.25;100384.31;5589514;31;35004;-64
2023/03/12 10:51:07;;;;;;;;;;;;;;;5.39;45.20;100379.28;5589413;31;34949;-65
2023/03/12 10:54:21;;;;;;;;;;;;;;;5.50;43.95;100394.13;5589175;31;34355;-64
2023/03/12 10:57:37;;;;;;;;;;;;;;;5.52;43.93;100395.63;5589393;31;34447;-64
2023/03/12 11:00:54;;;;;;;;;;;;;;;5.65;43.68;100390.97;5589132;31;34353;-65
2023/03/12 11:04:17;;;;;;;;;;;;;;;5.67;41.64;100399.56;5588304;31;34813;-65
2023/03/12 11:07:27;;;;;;;;;;;;;;;5.85;42.70;100398.91;5588224;31;33999;-63
2023/03/12 11:10:38;;;;;;;;;;;;;;;6.24;42.49;100391.88;5587949;31;34314;-64
2023/03/12 11:13:44;;;;;;;;;;;;;;;6.52;41.09;100398.91;5569216;32;34550;-64
2023/03/12 11:16:48;;;;;;;;;;;;;;;7.14;38.85;100393.03;5569130;32;34173;-64
2023/03/12 11:19:54;;;;;;;;;;;;;;;8.83;36.44;100392.19;5555654;32;34238;-64
2023/03/12 11:23:12;;;;;;;;;;;;;;;14.03;29.95;100396.81;5569262;32;34324;-64
2023/03/12 11:26:21;;;;;;;;;;;;;;;17.60;23.54;100393.25;5568949;32;34136;-64
2023/03/12 11:29:30;;;;;;;;;;;;;;;17.46;22.40;100391.66;5555895;32;34099;-64
2023/03/12 11:32:48;;;;;;;;;;;;;;;20.28;20.41;100392.78;5568994;32;33842;-64
2023/03/12 11:36:03;;;;;;;;;;;;;;;20.95;19.29;100385.25;5568685;32;34567;-65
2023/03/12 11:39:29;;;;;;;;;;;;;;;20.67;18.57;100397.53;5554952;32;32847;-65
2023/03/12 11:42:43;;;;;;;;;;;;;;;19.77;19.67;100395.97;5556215;32;34939;-65
2023/03/12 11:46:08;;;;;;;;;;;;;;;17.97;20.15;100399.69;5568436;32;34581;-65
2023/03/12 11:49:23;;;;;;;;;;;;;;;18.05;20.13;100396.75;5555814;32;34221;-65
2023/03/12 11:52:35;;;;;;;;;;;;;;;19.85;18.75;100388.38;5568664;32;34899;-64
2023/03/12 11:55:44;;;;;;;;;;;;;;;19.48;18.75;100393.03;5568625;32;34172;-64
2023/03/12 11:59:05;;;;;;;;;;;;;;;19.33;19.20;100387.16;5568367;32;33154;-64
2023/03/12 12:02:17;;;;;;;;;;;;;;;19.98;17.73;100389.28;5568719;32;35206;-66
2023/03/12 12:05:26;;;;;;;;;;;;;;;16.08;21.65;100384.53;5568329;32;34351;-65
2023/03/12 12:08:36;;;;;;;;;;;;;;;16.85;20.25;100391.16;5555421;32;34670;-64
2023/03/12 12:11:45;;;;;;;;;;;;;;;19.06;18.08;100389.34;5561487;31;34890;-66
2023/03/12 12:15:01;;;;;;;;;;;;;;;19.49;17.83;100381.22;5587843;31;34273;-66
2023/03/12 12:18:27;;;;;;;;;;;;;;;20.36;17.93;100366.34;5587663;31;34495;-65
2023/03/12 12:21:32;;;;;;;;;;;;;;;17.99;18.09;100370.75;5588252;31;34322;-64
2023/03/12 12:24:39;;;;;;;;;;;;;;;19.24;16.95;100367.00;5589793;31;34670;-65
2023/03/12 12:27:46;;;;;;;;;;;;;;;21.01;15.20;100363.53;5589700;31;34559;-65
2023/03/12 12:30:52;;;;;;;;;;;;;;;20.20;17.19;100350.81;5589183;31;33090;-65
2023/03/12 12:34:00;;;;;;;;;;;;;;;21.06;16.50;100360.94;5589777;31;34213;-65
2023/03/12 12:37:06;;;;;;;;;;;;;;;19.16;17.58;100361.91;5590534;31;34642;-65
2023/03/12 12:40:17;;;;;;;;;;;;;;;20.31;16.25;100355.44;5576334;31;33380;-65
2023/03/12 12:43:34;;;;;;;;;;;;;;;19.17;16.99;100368.12;5589735;31;34325;-65
2023/03/12 12:46:54;;;;;;;;;;;;;;;17.49;18.31;100348.28;5590457;31;34189;-65
2023/03/12 12:50:03;;;;;;;;;;;;;;;20.23;16.31;100360.31;5589737;31;34065;-64
2023/03/12 12:53:14;;;;;;;;;;;;;;;20.17;16.45;100362.03;5589570;31;34686;-64
2023/03/12 12:56:34;;;;;;;;;;;;;;;19.91;15.71;100354.34;5590043;31;33849;-65
2023/03/12 12:59:49;;;;;;;;;;;;;;;19.84;14.75;100362.53;5590355;31;34813;-65
2023/03/12 13:02:55;;;;;;;;;;;;;;;17.21;17.32;100364.72;5589707;31;34264;-64
2023/03/12 13:06:03;;;;;;;;;;;;;;;21.34;14.49;100368.31;5590564;31;34628;-66
2023/03/12 13:09:14;;;;;;;;;;;;;;;20.52;14.76;100354.06;5589584;31;34965;-64
2023/03/12 13:12:19;;;;;;;;;;;;;;;18.97;16.25;100365.66;5589254;31;34111;-64
2023/03/12 13:15:32;;;;;;;;;;;;;;;18.53;16.24;100361.28;5589568;31;34040;-64
2023/03/12 13:18:37;;;;;;;;;;;;;;;17.00;17.00;100356.09;5589482;31;35158;-65
2023/03/12 13:21:58;;;;;;;;;;;;;;;17.92;16.36;100361.09;5589272;31;35147;-64
2023/03/12 13:25:07;;;;;;;;;;;;;;;16.99;17.44;100357.97;5590192;31;34358;-64
2023/03/12 13:28:36;;;;;;;;;;;;;;;16.41;16.93;100351.63;5589820;31;34940;-65
2023/03/12 13:31:42;;;;;;;;;;;;;;;14.72;19.13;100354.28;5589254;31;35474;-64
2023/03/12 13:34:48;;;;;;;;;;;;;;;13.74;19.57;100357.72;5589836;31;34691;-64
2023/03/12 13:37:53;;;;;;;;;;;;;;;13.87;20.22;100357.84;5588833;31;32413;-64
2023/03/12 13:41:04;;;;;;;;;;;;;;;13.97;21.75;100362.03;5588522;31;34155;-64
2023/03/12 13:44:21;;;;;;;;;;;;;;;14.03;22.19;100364.78;5589179;31;34221;-65
2023/03/12 13:47:28;;;;;;;;;;;;;;;13.92;23.22;100374.12;5589905;31;34565;-64
2023/03/12 13:50:41;;;;;;;;;;;;;;;13.87;21.44;100375.69;5589815;31;33296;-64
2023/03/12 13:53:58;;;;;;;;;;;;;;;15.46;19.83;100370.53;5589506;31;35201;-64
2023/03/12 13:57:10;;;;;;;;;;;;;;;15.87;19.36;100362.47;5589669;31;34370;-64
2023/03/12 14:00:25;;;;;;;;;;;;;;;17.68;17.67;100360.81;5589823;31;34126;-64
2023/03/12 14:03:39;;;;;;;;;;;;;;;17.84;17.76;100372.91;5589499;31;34342;-65
2023/03/12 14:06:55;;;;;;;;;;;;;;;17.27;18.63;100365.72;5589685;31;34250;-65
2023/03/12 14:10:13;;;;;;;;;;;;;;;17.24;17.85;100372.31;5589680;31;34821;-65
2023/03/12 14:13:28;;;;;;;;;;;;;;;16.19;18.88;100364.38;5589433;31;34799;-65
2023/03/12 14:16:41;;;;;;;;;;;;;;;16.94;18.03;100365.81;5589544;31;34915;-65
2023/03/12 14:20:11;;;;;;;;;;;;;;;16.81;17.77;100372.00;5589550;31;34095;-64
2023/03/12 14:23:21;;;;;;;;;;;;;;;15.31;18.79;100372.50;5589521;31;34997;-64
2023/03/12 14:26:31;;;;;;;;;;;;;;;15.31;18.87;100376.00;5589427;31;34747;-64
2023/03/12 14:29:51;;;;;;;;;;;;;;;16.39;18.13;100375.09;5589515;31;34534;-64
2023/03/12 14:33:02;;;;;;;;;;;;;;;16.79;18.05;100379.44;5589348;31;34180;-64
2023/03/12 14:36:19;;;;;;;;;;;;;;;16.11;17.82;100366.44;5589407;31;34147;-63
2023/03/12 14:39:29;;;;;;;;;;;;;;;14.72;18.92;100381.81;5589210;31;34746;-65
2023/03/12 14:42:37;;;;;;;;;;;;;;;12.09;20.24;100374.97;5589204;31;34171;-63
2023/03/12 14:45:44;;;;;;;;;;;;;;;10.16;21.19;100378.09;5588247;31;34838;-63
2023/03/12 14:48:53;;;;;;;;;;;;;;;9.29;23.14;100367.94;5589041;31;34246;-63
2023/03/12 14:51:59;;;;;;;;;;;;;;;9.01;23.04;100356.72;5589285;31;34230;-63
2023/03/12 14:55:12;;;;;;;;;;;;;;;8.77;23.91;100374.28;5589294;31;34609;-63
2023/03/12 14:58:17;;;;;;;;;;;;;;;8.50;24.38;100365.53;5589013;31;34627;-63
2023/03/12 15:01:23;;;;;;;;;;;;;;;8.46;24.00;100368.66;5589242;31;34592;-64
2023/03/12 15:04:32;;;;;;;;;;;;;;;8.12;25.23;100365.87;5589026;31;34415;-63
2023/03/12 15:07:40;;;;;;;;;;;;;;;8.06;25.28;100369.94;5589100;31;34713;-64
2023/03/12 15:10:50;;;;;;;;;;;;;;;8.00;24.82;100367.91;5589082;31;34367;-64
2023/03/12 15:14:01;;;;;;;;;;;;;;;8.04;24.80;100355.22;5589092;31;34623;-63
2023/03/12 15:17:06;;;;;;;;;;;;;;;8.00;25.29;100372.34;5587937;31;34292;-63
2023/03/12 15:20:14;;;;;;;;;;;;;;;7.90;25.77;100376.88;5588986;31;34332;-63
2023/03/12 15:23:21;;;;;;;;;;;;;;;7.84;26.32;100365.94;5588897;31;34670;-63
2023/03/12 15:26:30;;;;;;;;;;;;;;;7.89;24.76;100369.94;5588143;31;34215;-63
2023/03/12 15:29:40;;;;;;;;;;;;;;;7.65;26.11;100379.25;5588281;31;34570;-63
2023/03/12 15:33:07;;;;;;;;;;;;;;;7.64;26.40;100390.00;5588709;31;34702;-63
2023/03/12 15:36:17;;;;;;;;;;;;;;;7.60;25.50;100384.16;5588594;31;34315;-63
2023/03/12 15:39:30;;;;;;;;;;;;;;;7.43;26.68;100388.44;5588414;31;34936;-63
2023/03/12 15:42:39;;;;;;;;;;;;;;;7.40;27.47;100387.91;5587823;31;34319;-64
2023/03/12 15:45:48;;;;;;;;;;;;;;;7.42;27.30;100385.94;5588452;31;34578;-63
2023/03/12 15:48:56;;;;;;;;;;;;;;;7.39;28.22;100386.25;5588329;31;34867;-63
2023/03/12 15:52:06;;;;;;;;;;;;;;;7.32;28.24;100395.72;5588320;31;34145;-63
2023/03/12 15:55:14;;;;;;;;;;;;;;;7.31;27.93;100389.59;5587664;31;34316;-64
2023/03/12 15:58:26;;;;;;;;;;;;;;;7.29;28.12;100390.75;5590975;31;34937;-64
2023/03/12 16:01:43;;;;;;;;;;;;;;;7.19;27.98;100400.50;5589985;31;34347;-63
2023/03/12 16:04:48;;;;;;;;;;;;;;;7.09;27.95;100397.91;5590623;31;33811;-63
2023/03/12 16:08:00;;;;;;;;;;;;;;;6.98;27.63;100408.62;5590764;31;34861;-65
2023/03/12 16:11:16;;;;;;;;;;;;;;;6.89;27.47;100412.97;5589933;31;34336;-64
2023/03/12 16:14:28;;;;;;;;;;;;;;;6.82;27.18;100416.34;5590006;31;34305;-63
2023/03/12 16:17:35;;;;;;;;;;;;;;;6.75;27.40;100408.16;5590543;31;34246;-64
2023/03/12 16:20:40;;;;;;;;;;;;;;;6.68;27.67;100420.22;5590547;31;34317;-64
2023/03/12 16:23:47;;;;;;;;;;;;;;;6.64;26.53;100421.47;5590535;31;34905;-64
2023/03/12 16:26:55;;;;;;;;;;;;;;;6.58;26.60;100422.06;5590394;31;34907;-63